SARE/RES METAR and TAF weather

Enter ICAO airport designator
Station Type Date Time Source
SARE METAR 2019/04/24 16:00 UTC NOAA

SARE 241600Z 09007KT 9999 FEW025 SCT100 BKN200 29/23 Q1015


Station Type Date Time Source
SARE Decoded METAR 2019/04/24 16:00 UTC NOAA

Resistencia Aero., Argentina (SARE) 27-27S 059-03W 52M
Apr 24, 2019 - 12:00 PM EDT / 2019.04.24 1600 UTC
Wind: from the E (090 degrees) at 8 MPH (7 KT):0
Visibility: greater than 7 mile(s):0
Sky conditions: mostly cloudy
Temperature: 84 F (29 C)
Dew Point: 73 F (23 C)
Relative Humidity: 70%
Pressure (altimeter): 29.97 in. Hg (1015 hPa)
ob: SARE 241600Z 09007KT 9999 FEW025 SCT100 BKN200 29/23 Q1015
cycle: 16

Station Type Date Time Source
SARE TAF 2019/04/24 12:33 UTC NOAA

TAF TAF SARE 241100Z 2412/2515 14010KT CAVOK TX26/2418Z TN17/2509Z
BECMG 2414/2416 9999 SCT030 BKN070 PROB30 2417/2424 20015KT 6000 TSRA OVC030 FEW050CB
TEMPO 2506/2511 VRB03KT 4000 DZ OVC007

Example: see airport list